createdAt,value
2023-02-11T00:02:09.222Z,64.83
2023-02-11T00:04:35.593Z,61.10
2023-02-11T00:07:02.074Z,67.00
2023-02-11T00:09:30.902Z,69.13
2023-02-11T00:11:58.133Z,58.13
2023-02-11T00:14:24.462Z,61.10
2023-02-11T00:16:50.806Z,71.73
2023-02-11T00:19:17.179Z,66.20
2023-02-11T00:21:43.643Z,63.00
2023-02-11T00:24:10.055Z,63.93
2023-02-11T00:26:36.544Z,67.50
2023-02-11T00:29:04.672Z,61.17
2023-02-11T00:31:31.362Z,67.23
2023-02-11T00:33:57.846Z,54.20
2023-02-11T00:36:26.891Z,57.50
2023-02-11T00:38:54.956Z,50.00
2023-02-11T00:41:22.123Z,55.97
2023-02-11T00:43:48.975Z,57.03
2023-02-11T00:46:17.360Z,51.03
2023-02-11T00:48:43.811Z,56.00
2023-02-11T00:51:10.415Z,61.77
2023-02-11T00:53:37.501Z,56.63
2023-02-11T00:56:04.442Z,54.13
2023-02-11T00:58:31.396Z,56.93
2023-02-11T01:00:57.793Z,49.70
2023-02-11T01:03:24.839Z,61.73
2023-02-11T01:05:51.912Z,54.37
2023-02-11T01:08:18.914Z,43.73
2023-02-11T01:10:45.343Z,53.03
2023-02-11T01:13:11.783Z,51.23
2023-02-11T01:15:38.165Z,49.30
2023-02-11T01:18:05.922Z,49.90
2023-02-11T01:20:32.276Z,56.60
2023-02-11T01:22:58.666Z,45.43
2023-02-11T01:25:25.043Z,52.93
2023-02-11T01:27:51.405Z,59.90
2023-02-11T01:30:17.752Z,52.43
2023-02-11T01:32:46.061Z,50.27
2023-02-11T01:35:12.441Z,47.73
2023-02-11T01:37:38.798Z,46.57
2023-02-11T01:40:08.470Z,49.73
2023-02-11T01:42:34.909Z,48.07
2023-02-11T01:45:21.891Z,50.90
2023-02-11T01:47:48.289Z,43.23
2023-02-11T01:50:14.842Z,45.37
2023-02-11T01:52:42.502Z,49.67
2023-02-11T01:55:30.829Z,50.27
2023-02-11T01:58:02.318Z,43.33
2023-02-11T02:00:36.621Z,51.13
2023-02-11T02:03:07.911Z,53.63
2023-02-11T02:05:48.274Z,48.87
2023-02-11T02:08:14.799Z,48.00
2023-02-11T02:10:45.678Z,46.77
2023-02-11T02:13:12.955Z,42.47
2023-02-11T02:15:44.597Z,36.93
2023-02-11T02:18:50.970Z,41.73
2023-02-11T02:21:51.285Z,42.37
2023-02-11T02:24:41.862Z,43.30
2023-02-11T02:27:27.724Z,44.67
2023-02-11T02:30:11.057Z,41.80
2023-02-11T02:32:54.086Z,45.93
2023-02-11T02:35:33.229Z,39.37
2023-02-11T02:38:13.213Z,44.37
2023-02-11T02:40:51.711Z,57.17
2023-02-11T02:43:19.164Z,45.30
2023-02-11T02:45:45.580Z,43.40
2023-02-11T02:48:33.042Z,44.57
2023-02-11T02:51:27.179Z,42.20
2023-02-11T02:54:24.286Z,45.93
2023-02-11T02:56:55.419Z,49.17
2023-02-11T02:59:53.852Z,39.10
2023-02-11T03:02:31.289Z,35.03
2023-02-11T03:05:06.063Z,43.53
2023-02-11T03:07:43.901Z,48.17
2023-02-11T03:10:20.011Z,43.63
2023-02-11T03:12:48.304Z,50.13
2023-02-11T03:15:17.097Z,38.30
2023-02-11T03:17:49.717Z,39.67
2023-02-11T03:20:18.750Z,40.03
2023-02-11T03:22:53.762Z,39.20
2023-02-11T03:25:21.154Z,43.47
2023-02-11T03:27:53.298Z,46.87
2023-02-11T03:30:22.623Z,44.00
2023-02-11T03:32:52.446Z,45.90
2023-02-11T03:35:25.009Z,46.50
2023-02-11T03:38:06.642Z,35.73
2023-02-11T03:40:38.174Z,46.43
2023-02-11T03:43:10.913Z,48.87
2023-02-11T03:45:38.327Z,52.17
2023-02-11T03:48:27.850Z,46.77
2023-02-11T03:50:55.384Z,39.17
2023-02-11T03:53:22.897Z,45.87
2023-02-11T03:55:51.848Z,50.03
2023-02-11T03:58:18.542Z,45.90
2023-02-11T04:00:45.082Z,47.83
2023-02-11T04:03:12.594Z,42.00
2023-02-11T04:05:39.365Z,49.90
2023-02-11T04:08:05.938Z,49.57
2023-02-11T04:10:32.696Z,55.10
2023-02-11T04:12:59.091Z,46.50
2023-02-11T04:15:25.579Z,53.70
2023-02-11T04:17:51.996Z,45.93
2023-02-11T04:20:18.479Z,53.93
2023-02-11T04:22:44.833Z,61.87
2023-02-11T04:25:11.221Z,59.23
2023-02-11T04:27:37.806Z,60.60
2023-02-11T04:30:05.982Z,51.17
2023-02-11T04:32:32.382Z,54.07
2023-02-11T04:34:58.751Z,53.43
2023-02-11T04:37:25.143Z,57.77
2023-02-11T04:39:51.496Z,53.40
2023-02-11T04:42:17.858Z,51.80
2023-02-11T04:44:44.269Z,59.70
2023-02-11T04:47:12.603Z,50.97
2023-02-11T04:49:39.262Z,59.47
2023-02-11T04:52:05.821Z,58.00
2023-02-11T04:54:32.197Z,55.40
2023-02-11T04:56:58.585Z,59.33
2023-02-11T04:59:25.047Z,60.30
2023-02-11T05:01:51.440Z,53.03
2023-02-11T05:04:18.290Z,56.97
2023-02-11T05:06:44.863Z,60.93
2023-02-11T05:09:12.932Z,54.57
2023-02-11T05:11:39.995Z,50.63
2023-02-11T05:14:06.955Z,67.00
2023-02-11T05:16:33.925Z,71.57
2023-02-11T05:19:00.603Z,59.50
2023-02-11T05:21:27.010Z,57.47
2023-02-11T05:23:53.501Z,62.10
2023-02-11T05:26:19.892Z,56.87
2023-02-11T05:28:46.428Z,63.90
2023-02-11T05:31:14.520Z,67.57
2023-02-11T05:33:41.502Z,58.13
2023-02-11T05:36:10.384Z,58.20
2023-02-11T05:38:37.734Z,67.60
2023-02-11T05:41:05.507Z,60.93
2023-02-11T05:43:31.904Z,61.17
2023-02-11T05:45:58.308Z,81.30
2023-02-11T05:48:24.700Z,65.30
2023-02-11T05:50:51.084Z,67.00
2023-02-11T05:53:17.461Z,64.27
2023-02-11T05:55:43.989Z,64.07
2023-02-11T05:58:10.380Z,75.10
2023-02-11T06:00:37.478Z,68.07
2023-02-11T06:03:04.483Z,59.73
2023-02-11T06:05:31.464Z,58.43
2023-02-11T06:07:58.145Z,63.70
2023-02-11T06:10:24.509Z,69.07
2023-02-11T06:12:50.883Z,81.80
2023-02-11T06:15:17.273Z,65.23
2023-02-11T06:17:43.641Z,75.53
2023-02-11T06:20:10.927Z,71.03
2023-02-11T06:22:37.575Z,81.47
2023-02-11T06:25:04.383Z,96.77
2023-02-11T06:27:30.837Z,88.87
2023-02-11T06:29:57.253Z,77.60
2023-02-11T06:32:42.799Z,88.03
2023-02-11T06:35:12.096Z,91.00
2023-02-11T06:37:39.133Z,85.60
2023-02-11T06:40:06.218Z,80.43
2023-02-11T06:42:32.716Z,90.20
2023-02-11T06:44:59.088Z,83.63
2023-02-11T06:47:25.475Z,105.60
2023-02-11T06:49:51.888Z,82.57
2023-02-11T06:52:18.283Z,93.13
2023-02-11T06:54:44.654Z,84.67
2023-02-11T06:57:11.089Z,94.37
2023-02-11T06:59:37.474Z,94.57
2023-02-11T07:02:03.884Z,95.17
2023-02-11T07:04:30.299Z,102.67
2023-02-11T07:06:56.661Z,94.17
2023-02-11T07:09:23.031Z,98.60
2023-02-11T07:11:49.397Z,97.93
2023-02-11T07:14:15.834Z,113.57
2023-02-11T07:16:42.205Z,99.43
2023-02-11T07:19:08.580Z,92.90
2023-02-11T07:21:35.055Z,109.67
2023-02-11T07:24:02.023Z,93.90
2023-02-11T07:26:29.089Z,94.83
2023-02-11T07:28:55.816Z,94.77
2023-02-11T07:31:26.506Z,89.73
2023-02-11T07:33:55.069Z,96.00
2023-02-11T07:36:21.787Z,94.93
2023-02-11T07:38:48.381Z,107.80
2023-02-11T07:41:17.954Z,86.73
2023-02-11T07:43:44.779Z,88.27
2023-02-11T07:46:13.997Z,91.50
2023-02-11T07:48:40.478Z,81.63
2023-02-11T07:51:24.309Z,72.83
2023-02-11T07:53:52.004Z,74.70
2023-02-11T07:56:20.358Z,85.80
2023-02-11T07:58:46.812Z,92.90
2023-02-11T08:01:17.139Z,69.97
2023-02-11T08:03:43.594Z,88.93
2023-02-11T08:06:15.233Z,92.30
2023-02-11T08:08:42.644Z,79.23
2023-02-11T08:11:11.093Z,84.93
2023-02-11T08:13:37.640Z,72.37
2023-02-11T08:16:04.874Z,88.00
2023-02-11T08:18:32.251Z,86.97
2023-02-11T08:21:09.342Z,81.63
2023-02-11T08:23:36.995Z,87.60
2023-02-11T08:26:09.162Z,81.67
2023-02-11T08:28:37.352Z,90.07
2023-02-11T08:31:08.787Z,86.17
2023-02-11T08:33:35.814Z,94.43
2023-02-11T08:36:08.314Z,100.93
2023-02-11T08:38:34.762Z,91.67
2023-02-11T08:41:01.172Z,81.47
2023-02-11T08:43:27.580Z,88.40
2023-02-11T08:45:54.216Z,96.40
2023-02-11T08:48:20.692Z,99.27
2023-02-11T08:50:47.181Z,96.20
2023-02-11T08:53:13.546Z,95.93
2023-02-11T08:55:39.901Z,88.93
2023-02-11T08:58:06.261Z,91.80
2023-02-11T09:00:32.638Z,89.70
2023-02-11T09:02:59.056Z,107.77
2023-02-11T09:05:25.473Z,84.33
2023-02-11T09:07:51.918Z,95.80
2023-02-11T09:10:18.903Z,99.60
2023-02-11T09:12:45.267Z,79.27
2023-02-11T09:15:11.633Z,98.00
2023-02-11T09:17:37.988Z,94.33
2023-02-11T09:20:04.746Z,85.17
2023-02-11T09:22:31.137Z,85.63
2023-02-11T09:24:57.516Z,89.93
2023-02-11T09:27:23.877Z,94.27
2023-02-11T09:29:50.416Z,91.53
2023-02-11T09:32:16.903Z,107.03
2023-02-11T09:34:43.381Z,101.57
2023-02-11T09:37:09.890Z,98.30
2023-02-11T09:39:36.309Z,90.23
2023-02-11T09:42:05.318Z,91.87
2023-02-11T09:44:34.036Z,97.00
2023-02-11T09:47:17.351Z,107.43
2023-02-11T09:49:50.421Z,99.17
2023-02-11T09:52:40.386Z,91.57
2023-02-11T09:55:18.588Z,112.10
2023-02-11T09:57:45.112Z,105.57
2023-02-11T10:00:23.313Z,97.43
2023-02-11T10:03:14.733Z,96.43
2023-02-11T10:06:03.681Z,103.27
2023-02-11T10:08:58.992Z,105.60
2023-02-11T10:11:36.489Z,95.03
2023-02-11T10:14:27.910Z,94.33
2023-02-11T10:17:25.206Z,97.03
2023-02-11T10:19:57.762Z,90.17
2023-02-11T10:22:37.480Z,104.67
2023-02-11T10:25:21.668Z,106.03
2023-02-11T10:27:49.564Z,98.93
2023-02-11T10:30:26.418Z,101.33
2023-02-11T10:33:25.397Z,100.87
2023-02-11T10:35:51.802Z,94.43
2023-02-11T10:38:18.372Z,90.97
2023-02-11T10:40:45.718Z,94.07
2023-02-11T10:43:15.279Z,94.27
2023-02-11T10:45:50.687Z,109.73
2023-02-11T10:48:51.704Z,96.67
2023-02-11T10:51:23.775Z,92.60
2023-02-11T10:54:05.344Z,94.90
2023-02-11T10:56:41.026Z,94.57
2023-02-11T10:59:14.350Z,107.60
2023-02-11T11:01:46.127Z,92.60
2023-02-11T11:04:34.132Z,101.70
2023-02-11T11:07:22.782Z,115.80
2023-02-11T11:09:59.479Z,85.83
2023-02-11T11:12:25.804Z,105.87
2023-02-11T11:14:55.914Z,108.33
2023-02-11T11:17:22.346Z,91.83
2023-02-11T11:19:48.713Z,97.63
2023-02-11T11:22:22.485Z,85.47
2023-02-11T11:24:55.148Z,98.00
2023-02-11T11:27:24.400Z,97.37
2023-02-11T11:29:55.201Z,89.93
2023-02-11T11:32:29.648Z,93.87
2023-02-11T11:35:00.735Z,101.07
2023-02-11T11:37:34.076Z,91.83
2023-02-11T11:40:07.791Z,87.07
2023-02-11T11:42:36.816Z,98.77
2023-02-11T11:45:26.628Z,89.37
2023-02-11T11:48:03.097Z,104.47
2023-02-11T11:50:44.032Z,90.00
2023-02-11T11:53:31.471Z,83.90
2023-02-11T11:56:12.906Z,79.57
2023-02-11T11:58:39.459Z,99.53
2023-02-11T12:01:14.986Z,86.57
2023-02-11T12:04:10.870Z,76.43
2023-02-11T12:06:55.849Z,77.83
2023-02-11T12:09:39.068Z,81.57
2023-02-11T12:12:26.690Z,73.50
2023-02-11T12:15:20.354Z,89.10
2023-02-11T12:17:55.970Z,80.43
2023-02-11T12:20:31.334Z,96.27
2023-02-11T12:23:35.369Z,79.73
2023-02-11T12:26:12.392Z,89.43
2023-02-11T12:28:53.992Z,77.30
2023-02-11T12:31:35.272Z,77.40
2023-02-11T12:34:26.573Z,80.40
2023-02-11T12:37:20.047Z,77.03
2023-02-11T12:39:51.126Z,79.50
2023-02-11T12:42:55.130Z,86.97
2023-02-11T12:46:00.622Z,83.23
2023-02-11T12:48:43.409Z,88.27
2023-02-11T12:51:19.632Z,77.37
2023-02-11T12:54:21.273Z,90.90
2023-02-11T12:57:14.969Z,73.50
2023-02-11T12:59:51.941Z,77.67
2023-02-11T13:03:00.823Z,71.40
2023-02-11T13:05:46.179Z,86.70
2023-02-11T13:08:49.929Z,98.13
2023-02-11T13:11:34.704Z,78.50
2023-02-11T13:14:06.419Z,76.43
2023-02-11T13:16:38.250Z,91.30
2023-02-11T13:19:13.502Z,71.80
2023-02-11T13:21:48.159Z,87.57
2023-02-11T13:24:37.616Z,73.97
2023-02-11T13:27:11.449Z,75.67
2023-02-11T13:30:13.795Z,72.47
2023-02-11T13:33:04.680Z,68.27
2023-02-11T13:35:40.168Z,71.73
2023-02-11T13:38:19.141Z,69.83
2023-02-11T13:40:59.541Z,78.07
2023-02-11T13:43:30.559Z,66.77
2023-02-11T13:46:21.668Z,69.57
2023-02-11T13:48:52.481Z,69.97
2023-02-11T13:51:35.329Z,87.13
2023-02-11T13:54:03.180Z,82.23
2023-02-11T13:56:34.041Z,73.90
2023-02-11T13:59:04.025Z,66.07
2023-02-11T14:02:23.024Z,67.57
2023-02-11T14:05:23.246Z,61.43
2023-02-11T14:08:29.834Z,71.60
2023-02-11T14:10:57.661Z,61.63
2023-02-11T14:13:37.321Z,65.90
2023-02-11T14:16:17.102Z,60.40
2023-02-11T14:18:46.734Z,55.90
2023-02-11T14:21:22.857Z,54.43
2023-02-11T14:23:53.186Z,65.00
2023-02-11T14:26:20.086Z,62.13
2023-02-11T14:29:16.020Z,57.00
2023-02-11T14:32:05.348Z,50.73
2023-02-11T14:35:02.200Z,60.53
2023-02-11T14:38:00.582Z,58.17
2023-02-11T14:40:33.011Z,47.10
2023-02-11T14:43:24.302Z,44.63
2023-02-11T14:45:54.822Z,50.77
2023-02-11T14:48:29.770Z,47.37
2023-02-11T14:51:06.644Z,47.80
2023-02-11T14:53:34.269Z,41.47
2023-02-11T14:56:00.711Z,46.17
2023-02-11T14:58:29.971Z,40.20
2023-02-11T15:01:01.247Z,42.93
2023-02-11T15:03:35.309Z,40.17
2023-02-11T15:06:16.539Z,50.27
2023-02-11T15:08:47.176Z,43.20
2023-02-11T15:11:17.789Z,40.27
2023-02-11T15:13:47.430Z,46.83
2023-02-11T15:16:18.434Z,43.27
2023-02-11T15:18:48.381Z,49.47
2023-02-11T15:21:24.557Z,39.40
2023-02-11T15:24:05.970Z,46.77
2023-02-11T15:26:33.122Z,48.13
2023-02-11T15:29:00.124Z,46.33
2023-02-11T15:31:28.357Z,47.40
2023-02-11T15:33:55.142Z,40.67
2023-02-11T15:36:28.422Z,41.70
2023-02-11T15:39:17.325Z,52.70
2023-02-11T15:41:44.515Z,38.73
2023-02-11T15:44:31.242Z,42.33
2023-02-11T15:46:58.404Z,44.00
2023-02-11T15:49:26.122Z,49.70
2023-02-11T15:51:56.797Z,42.93
2023-02-11T15:54:27.439Z,49.13
2023-02-11T15:57:01.602Z,60.20
2023-02-11T15:59:38.761Z,44.20
2023-02-11T16:02:09.458Z,49.63
2023-02-11T16:04:36.323Z,51.90
2023-02-11T16:07:03.008Z,46.23
2023-02-11T16:09:34.959Z,53.57
2023-02-11T16:12:18.644Z,59.83
2023-02-11T16:14:45.077Z,58.70
2023-02-11T16:17:25.085Z,63.47
2023-02-11T16:19:53.517Z,61.73
2023-02-11T16:22:24.894Z,66.03
2023-02-11T16:24:54.002Z,68.90
2023-02-11T16:27:39.586Z,78.00
2023-02-11T16:30:21.722Z,67.00
2023-02-11T16:32:48.091Z,69.80
2023-02-11T16:35:14.436Z,64.57
2023-02-11T16:37:40.768Z,70.93
2023-02-11T16:40:07.949Z,65.17
2023-02-11T16:42:34.303Z,66.20
2023-02-11T16:45:00.723Z,69.80
2023-02-11T16:47:28.318Z,66.07
2023-02-11T16:49:56.028Z,73.20
2023-02-11T16:52:23.078Z,72.23
2023-02-11T16:54:51.353Z,83.60
2023-02-11T16:57:21.101Z,82.70
2023-02-11T16:59:48.007Z,86.10
2023-02-11T17:02:32.742Z,79.47
2023-02-11T17:05:01.726Z,68.80
2023-02-11T17:07:28.772Z,72.63
2023-02-11T17:09:56.037Z,75.20
2023-02-11T17:12:25.242Z,68.37
2023-02-11T17:14:52.274Z,89.47
2023-02-11T17:17:18.663Z,83.40
2023-02-11T17:19:45.023Z,85.17
2023-02-11T17:22:11.904Z,75.87
2023-02-11T17:24:38.238Z,81.17
2023-02-11T17:27:04.700Z,77.93
2023-02-11T17:29:31.140Z,75.07
2023-02-11T17:31:57.540Z,85.73
2023-02-11T17:34:24.123Z,81.93
2023-02-11T17:36:50.695Z,73.37
2023-02-11T17:39:17.079Z,81.87
2023-02-11T17:41:43.467Z,74.97
2023-02-11T17:44:12.067Z,75.60
2023-02-11T17:46:38.420Z,80.27
2023-02-11T17:49:04.851Z,79.80
2023-02-11T17:51:33.930Z,78.80
2023-02-11T17:54:03.536Z,79.90
2023-02-11T17:56:33.107Z,74.37
2023-02-11T17:58:59.552Z,85.67
2023-02-11T18:01:30.953Z,78.97
2023-02-11T18:03:57.680Z,76.00
2023-02-11T18:06:24.476Z,73.97
2023-02-11T18:08:50.907Z,85.00
2023-02-11T18:11:17.693Z,76.03
2023-02-11T18:13:45.247Z,75.23
2023-02-11T18:16:15.666Z,82.00
2023-02-11T18:18:43.361Z,77.20
2023-02-11T18:21:15.505Z,70.03
2023-02-11T18:23:42.727Z,76.27
2023-02-11T18:26:10.904Z,80.70
2023-02-11T18:28:38.300Z,84.47
2023-02-11T18:31:05.823Z,83.33
2023-02-11T18:33:32.846Z,79.73
2023-02-11T18:35:59.201Z,81.03
2023-02-11T18:38:25.574Z,82.40
2023-02-11T18:40:52.337Z,89.83
2023-02-11T18:43:19.846Z,88.33
2023-02-11T18:45:47.890Z,74.90
2023-02-11T18:48:15.277Z,83.67
2023-02-11T18:50:44.378Z,99.57
2023-02-11T18:53:12.853Z,80.07
2023-02-11T18:55:40.811Z,74.47
2023-02-11T18:58:07.225Z,80.10
2023-02-11T19:00:34.660Z,84.53
2023-02-11T19:03:01.277Z,74.70
2023-02-11T19:05:29.799Z,75.87
2023-02-11T19:07:56.455Z,84.50
2023-02-11T19:10:23.797Z,71.33
2023-02-11T19:12:53.630Z,82.47
2023-02-11T19:15:19.987Z,88.50
2023-02-11T19:17:46.306Z,87.23
2023-02-11T19:20:12.678Z,83.63
2023-02-11T19:22:39.006Z,78.97
2023-02-11T19:25:05.775Z,84.60
2023-02-11T19:27:32.188Z,91.87
2023-02-11T19:29:58.582Z,91.53
2023-02-11T19:32:24.991Z,87.60
2023-02-11T19:34:52.048Z,94.20
2023-02-11T19:37:18.600Z,79.77
2023-02-11T19:39:45.253Z,94.57
2023-02-11T19:42:12.452Z,97.97
2023-02-11T19:44:38.944Z,89.03
2023-02-11T19:47:06.766Z,85.87
2023-02-11T19:49:33.641Z,84.30
2023-02-11T19:52:00.054Z,88.70
2023-02-11T19:54:28.951Z,90.30
2023-02-11T19:56:55.671Z,91.97
2023-02-11T19:59:22.024Z,92.83
2023-02-11T20:01:48.980Z,93.97
2023-02-11T20:04:18.231Z,103.93
2023-02-11T20:06:45.220Z,86.57
2023-02-11T20:09:14.394Z,89.40
2023-02-11T20:11:41.484Z,103.63
2023-02-11T20:14:10.405Z,96.47
2023-02-11T20:16:47.972Z,90.17
2023-02-11T20:19:21.138Z,93.20
2023-02-11T20:21:50.771Z,94.83
2023-02-11T20:24:18.723Z,95.50
2023-02-11T20:26:47.954Z,94.87
2023-02-11T20:29:15.959Z,96.40
2023-02-11T20:31:43.011Z,91.50
2023-02-11T20:34:10.741Z,95.10
2023-02-11T20:36:38.622Z,91.77
2023-02-11T20:39:05.874Z,92.47
2023-02-11T20:41:34.533Z,97.67
2023-02-11T20:44:03.882Z,90.27
2023-02-11T20:46:33.118Z,105.23
2023-02-11T20:48:59.936Z,94.53
2023-02-11T20:51:30.384Z,100.97
2023-02-11T20:53:57.498Z,87.40
2023-02-11T20:56:29.865Z,96.73
2023-02-11T20:58:58.172Z,92.37
2023-02-11T21:01:27.941Z,99.67
2023-02-11T21:03:57.566Z,88.80
2023-02-11T21:06:30.282Z,92.80
2023-02-11T21:08:57.428Z,91.03
2023-02-11T21:11:24.051Z,90.87
2023-02-11T21:13:51.046Z,91.47
2023-02-11T21:16:22.516Z,99.60
2023-02-11T21:18:50.224Z,112.67
2023-02-11T21:21:18.790Z,94.33
2023-02-11T21:23:45.636Z,90.57
2023-02-11T21:26:12.494Z,93.63
2023-02-11T21:28:40.956Z,93.73
2023-02-11T21:31:07.815Z,93.33
2023-02-11T21:33:34.568Z,88.83
2023-02-11T21:36:04.529Z,89.53
2023-02-11T21:38:31.232Z,103.80
2023-02-11T21:41:03.848Z,102.83
2023-02-11T21:43:30.189Z,89.07
2023-02-11T21:45:57.107Z,98.73
2023-02-11T21:48:25.540Z,92.80
2023-02-11T21:50:52.866Z,99.87
2023-02-11T21:53:19.656Z,97.87
2023-02-11T21:55:45.972Z,104.93
2023-02-11T21:58:13.284Z,97.60
2023-02-11T22:00:40.231Z,99.13
2023-02-11T22:03:06.681Z,103.67
2023-02-11T22:05:33.052Z,104.93
2023-02-11T22:07:59.440Z,88.27
2023-02-11T22:10:25.781Z,87.97
2023-02-11T22:12:52.098Z,91.50
2023-02-11T22:15:18.503Z,89.93
2023-02-11T22:17:44.965Z,83.80
2023-02-11T22:20:11.681Z,84.57
2023-02-11T22:22:38.003Z,85.07
2023-02-11T22:25:04.586Z,97.10
2023-02-11T22:27:30.939Z,88.90
2023-02-11T22:29:57.291Z,91.37
2023-02-11T22:32:23.941Z,82.93
2023-02-11T22:34:53.104Z,95.60
2023-02-11T22:37:19.719Z,86.10
2023-02-11T22:39:46.277Z,86.13
2023-02-11T22:42:12.612Z,90.57
2023-02-11T22:44:38.981Z,98.17
2023-02-11T22:47:05.370Z,86.87
2023-02-11T22:49:33.065Z,77.17
2023-02-11T22:51:59.698Z,87.33
2023-02-11T22:54:26.174Z,84.77
2023-02-11T22:56:53.182Z,73.70
2023-02-11T22:59:20.706Z,84.60
2023-02-11T23:01:47.443Z,83.53
2023-02-11T23:04:16.899Z,88.80
2023-02-11T23:06:43.904Z,86.53
2023-02-11T23:09:12.189Z,85.37
2023-02-11T23:11:39.246Z,76.23
2023-02-11T23:14:08.020Z,81.87
2023-02-11T23:16:34.698Z,87.97
2023-02-11T23:19:05.469Z,75.57
2023-02-11T23:21:35.166Z,75.33
2023-02-11T23:24:05.720Z,87.20
2023-02-11T23:26:32.391Z,71.40
2023-02-11T23:28:59.748Z,69.17
2023-02-11T23:31:37.385Z,80.60
2023-02-11T23:34:04.215Z,72.13
2023-02-11T23:36:30.653Z,76.17
2023-02-11T23:38:57.071Z,74.17
2023-02-11T23:41:24.457Z,76.37
2023-02-11T23:43:52.743Z,72.27
2023-02-11T23:46:21.675Z,75.03
2023-02-11T23:48:49.494Z,74.47
2023-02-11T23:51:15.969Z,63.97
2023-02-11T23:53:42.443Z,57.93
2023-02-11T23:56:11.070Z,59.67
2023-02-11T23:58:37.460Z,66.93
